Time,TemperatureF,DewpointF,PressureIn,WindDirection,WindDirectionDegrees,WindSpeedMPH,WindSpeedGustMPH,Humidity,HourlyPrecipIn,Conditions,Clouds,dailyrainin,SoftwareType,DateUTC
2013-01-17 01:40:00,36.0,-99.9,-100.00,West,269,8.0,10.0,-999,-99.99,,,-99.99,,2013-01-17 09:40:00,
2013-01-17 02:02:00,36.0,-99.9,-100.00,NW,304,3.0,10.0,-999,-99.99,,,-99.99,,2013-01-17 10:02:00,
2013-01-17 02:12:00,36.0,-99.9,-100.00,NW,304,3.0,10.0,-999,-99.99,,,-99.99,,2013-01-17 10:12:00,
2013-01-17 02:22:00,36.0,-99.9,-100.00,West,269,8.0,10.0,-999,-99.99,,,-99.99,,2013-01-17 10:22:00,
2013-01-17 02:33:00,36.0,-99.9,-100.00,West,269,8.0,10.0,-999,-99.99,,,-99.99,,2013-01-17 10:33:00,
2013-01-17 02:53:00,35.0,-99.9,-100.00,West,269,8.0,10.0,-999,-99.99,,,-99.99,,2013-01-17 10:53:00,
2013-01-17 05:00:00,36.0,-99.9,-100.00,West,264,7.0,8.0,-999,-99.99,,,-99.99,,2013-01-17 13:00:00,
2013-01-17 05:53:00,36.0,-99.9,-100.00,West,264,7.0,8.0,-999,-99.99,,,-99.99,,2013-01-17 13:53:00,
2013-01-17 08:23:00,39.0,-99.9,-100.00,West,281,4.0,5.0,-999,-99.99,,,-99.99,,2013-01-17 16:23:00,
2013-01-17 08:34:00,39.0,-99.9,-100.00,West,281,4.0,5.0,-999,-99.99,,,-99.99,,2013-01-17 16:34:00,
2013-01-17 10:20:00,51.0,-99.9,-100.00,NNE,25,2.0,6.0,-999,-99.99,,,-99.99,,2013-01-17 18:20:00,
2013-01-17 10:54:00,50.0,-99.9,-100.00,North,358,5.0,7.0,-999,-99.99,,,-99.99,,2013-01-17 18:54:00,
2013-01-17 11:04:00,51.0,-99.9,-100.00,NNE,25,2.0,6.0,-999,-99.99,,,-99.99,,2013-01-17 19:04:00,
2013-01-17 11:13:00,51.0,-99.9,-100.00,NNE,25,2.0,6.0,-999,-99.99,,,-99.99,,2013-01-17 19:13:00,
2013-01-17 12:10:00,55.0,-99.9,-100.00,NE,43,8.0,10.0,-999,-99.99,,,-99.99,,2013-01-17 20:10:00,
2013-01-17 12:54:00,55.0,-99.9,-100.00,NE,43,8.0,10.0,-999,-99.99,,,-99.99,,2013-01-17 20:54:00,
2013-01-17 13:03:00,55.0,-99.9,-100.00,NE,43,8.0,10.0,-999,-99.99,,,-99.99,,2013-01-17 21:03:00,
2013-01-17 14:33:00,58.0,-99.9,-100.00,NNE,22,9.0,11.0,-999,-99.99,,,-99.99,,2013-01-17 22:33:00,
2013-01-17 14:43:00,58.0,-99.9,-100.00,NNE,22,9.0,11.0,-999,-99.99,,,-99.99,,2013-01-17 22:43:00,
2013-01-17 14:53:00,58.0,-99.9,-100.00,NNE,19,8.0,13.0,-999,-99.99,,,-99.99,,2013-01-17 22:53:00,
2013-01-17 15:00:00,58.0,-99.9,-100.00,North,9,6.0,11.0,-999,-99.99,,,-99.99,,2013-01-17 23:00:00,
2013-01-17 15:03:00,58.0,-99.9,-100.00,NNE,19,8.0,13.0,-999,-99.99,,,-99.99,,2013-01-17 23:03:00,
2013-01-17 15:53:00,58.0,-99.9,-100.00,North,9,6.0,11.0,-999,-99.99,,,-99.99,,2013-01-17 23:53:00,
2013-01-17 17:00:00,54.0,-99.9,-100.00,North,356,6.0,8.0,-999,-99.99,,,-99.99,,2013-01-18 01:00:00,
2013-01-17 17:53:00,54.0,-99.9,-100.00,North,356,6.0,8.0,-999,-99.99,,,-99.99,,2013-01-18 01:53:00,
2013-01-17 18:23:00,52.0,-99.9,-100.00,NW,323,6.0,6.0,-999,-99.99,,,-99.99,,2013-01-18 02:23:00,
2013-01-17 18:33:00,47.0,-99.9,-100.00,NW,317,6.0,7.0,-999,-99.99,,,-99.99,,2013-01-18 02:33:00,
2013-01-17 18:43:00,47.0,-99.9,-100.00,NW,317,6.0,7.0,-999,-99.99,,,-99.99,,2013-01-18 02:43:00,
2013-01-17 18:53:00,47.0,-99.9,-100.00,NW,317,6.0,7.0,-999,-99.99,,,-99.99,,2013-01-18 02:53:00,
2013-01-17 19:33:00,49.0,-99.9,-100.00,NW,316,9.0,9.0,-999,-99.99,,,-99.99,,2013-01-18 03:33:00,
2013-01-17 19:43:00,49.0,-99.9,-100.00,NW,316,9.0,9.0,-999,-99.99,,,-99.99,,2013-01-18 03:43:00,
2013-01-17 19:53:00,49.0,-99.9,-100.00,NW,316,9.0,9.0,-999,-99.99,,,-99.99,,2013-01-18 03:53:00,
2013-01-17 20:03:00,47.0,-99.9,-100.00,NW,304,6.0,7.0,-999,-99.99,,,-99.99,,2013-01-18 04:03:00,
2013-01-17 20:12:00,47.0,-99.9,-100.00,NW,304,6.0,7.0,-999,-99.99,,,-99.99,,2013-01-18 04:12:00,
2013-01-17 20:22:00,47.0,-99.9,-100.00,WNW,298,7.0,8.0,-999,-99.99,,,-99.99,,2013-01-18 04:22:00,
2013-01-17 20:33:00,47.0,-99.9,-100.00,WNW,298,7.0,8.0,-999,-99.99,,,-99.99,,2013-01-18 04:33:00,
2013-01-17 20:40:00,40.0,-99.9,-100.00,West,270,7.0,8.0,-999,-99.99,,,-99.99,,2013-01-18 04:40:00,
2013-01-17 21:22:00,41.0,-99.9,-100.00,West,270,7.0,8.0,-999,-99.99,,,-99.99,,2013-01-18 05:22:00,
2013-01-17 21:30:00,41.0,-99.9,-100.00,West,280,6.0,6.0,-999,-99.99,,,-99.99,,2013-01-18 05:30:00,
2013-01-17 21:34:00,40.0,-99.9,-100.00,West,270,7.0,8.0,-999,-99.99,,,-99.99,,2013-01-18 05:34:00,
2013-01-17 21:53:00,40.0,-99.9,-100.00,West,261,8.0,8.0,-999,-99.99,,,-99.99,,2013-01-18 05:53:00,
2013-01-17 22:03:00,41.0,-99.9,-100.00,West,280,6.0,6.0,-999,-99.99,,,-99.99,,2013-01-18 06:03:00,
2013-01-17 22:12:00,41.0,-99.9,-100.00,West,280,6.0,6.0,-999,-99.99,,,-99.99,,2013-01-18 06:12:00,
2013-01-17 22:20:00,41.0,-99.9,-100.00,WNW,301,4.0,7.0,-999,-99.99,,,-99.99,,2013-01-18 06:20:00,
2013-01-17 22:23:00,41.0,-99.9,-100.00,West,280,6.0,6.0,-999,-99.99,,,-99.99,,2013-01-18 06:23:00,
2013-01-17 22:53:00,42.0,-99.9,-100.00,WNW,295,5.0,6.0,-999,-99.99,,,-99.99,,2013-01-18 06:53:00,
2013-01-17 23:02:00,41.0,-99.9,-100.00,WNW,301,4.0,7.0,-999,-99.99,,,-99.99,,2013-01-18 07:02:00,
2013-01-17 23:12:00,41.0,-99.9,-100.00,WNW,301,4.0,7.0,-999,-99.99,,,-99.99,,2013-01-18 07:12:00,